sensor_id;sensor_type;location;lat;lon;timestamp;P1;durP1;ratioP1;P2;durP2;ratioP2
40588;SDS011;26297;49.450;6.640;2023-04-25T00:00:34;3.15;;;2.85;;
40588;SDS011;26297;49.450;6.640;2023-04-25T00:04:30;2.88;;;2.47;;
40588;SDS011;26297;49.450;6.640;2023-04-25T00:12:20;2.50;;;2.17;;
40588;SDS011;26297;49.450;6.640;2023-04-25T03:07:27;2.67;;;2.47;;
40588;SDS011;26297;49.450;6.640;2023-04-25T03:23:38;3.72;;;2.72;;
40588;SDS011;26297;49.450;6.640;2023-04-25T03:50:28;3.92;;;2.63;;
40588;SDS011;26297;49.450;6.640;2023-04-25T04:18:36;3.25;;;2.85;;
40588;SDS011;26297;49.450;6.640;2023-04-25T04:22:28;2.80;;;2.60;;
40588;SDS011;26297;49.450;6.640;2023-04-25T04:30:37;3.35;;;2.75;;
40588;SDS011;26297;49.450;6.640;2023-04-25T04:34:18;2.65;;;2.45;;
40588;SDS011;26297;49.450;6.640;2023-04-25T07:03:38;4.35;;;2.33;;
40588;SDS011;26297;49.450;6.640;2023-04-25T07:24:42;3.40;;;3.10;;
40588;SDS011;26297;49.450;6.640;2023-04-25T08:00:08;5.85;;;4.40;;
40588;SDS011;26297;49.450;6.640;2023-04-25T08:12:17;5.53;;;3.92;;
40588;SDS011;26297;49.450;6.640;2023-04-25T08:16:00;6.45;;;4.82;;
40588;SDS011;26297;49.450;6.640;2023-04-25T08:20:02;7.93;;;5.10;;
40588;SDS011;26297;49.450;6.640;2023-04-25T08:23:46;4.95;;;3.72;;
40588;SDS011;26297;49.450;6.640;2023-04-25T08:44:20;10.80;;;6.13;;
40588;SDS011;26297;49.450;6.640;2023-04-25T08:47:51;5.45;;;3.90;;
40588;SDS011;26297;49.450;6.640;2023-04-25T08:51:07;6.18;;;4.15;;
40588;SDS011;26297;49.450;6.640;2023-04-25T08:54:49;4.45;;;3.47;;
40588;SDS011;26297;49.450;6.640;2023-04-25T08:58:07;4.43;;;3.28;;
40588;SDS011;26297;49.450;6.640;2023-04-25T09:01:22;7.40;;;4.20;;
40588;SDS011;26297;49.450;6.640;2023-04-25T09:04:46;6.43;;;3.38;;
40588;SDS011;26297;49.450;6.640;2023-04-25T09:07:58;4.25;;;2.60;;
40588;SDS011;26297;49.450;6.640;2023-04-25T09:11:15;4.55;;;3.17;;
40588;SDS011;26297;49.450;6.640;2023-04-25T09:15:13;5.70;;;3.55;;
40588;SDS011;26297;49.450;6.640;2023-04-25T10:31:18;5.80;;;2.73;;
40588;SDS011;26297;49.450;6.640;2023-04-25T10:38:24;4.75;;;2.75;;
40588;SDS011;26297;49.450;6.640;2023-04-25T10:41:57;4.47;;;2.38;;
40588;SDS011;26297;49.450;6.640;2023-04-25T10:45:57;5.65;;;2.38;;
40588;SDS011;26297;49.450;6.640;2023-04-25T11:08:54;4.93;;;2.60;;
40588;SDS011;26297;49.450;6.640;2023-04-25T11:12:45;3.63;;;2.78;;
40588;SDS011;26297;49.450;6.640;2023-04-25T11:15:58;5.30;;;2.20;;
40588;SDS011;26297;49.450;6.640;2023-04-25T11:19:41;3.15;;;2.20;;
40588;SDS011;26297;49.450;6.640;2023-04-25T11:23:23;3.95;;;2.55;;
40588;SDS011;26297;49.450;6.640;2023-04-25T12:04:24;1.97;;;1.77;;
40588;SDS011;26297;49.450;6.640;2023-04-25T12:07:34;3.72;;;1.90;;
40588;SDS011;26297;49.450;6.640;2023-04-25T12:10:59;3.85;;;2.45;;
40588;SDS011;26297;49.450;6.640;2023-04-25T13:11:52;2.30;;;1.30;;
40588;SDS011;26297;49.450;6.640;2023-04-25T13:15:21;1.63;;;1.20;;
40588;SDS011;26297;49.450;6.640;2023-04-25T13:18:59;1.40;;;1.23;;
40588;SDS011;26297;49.450;6.640;2023-04-25T13:22:32;5.18;;;1.77;;
40588;SDS011;26297;49.450;6.640;2023-04-25T13:25:56;5.03;;;1.73;;
40588;SDS011;26297;49.450;6.640;2023-04-25T13:29:36;2.40;;;1.45;;
40588;SDS011;26297;49.450;6.640;2023-04-25T13:33:04;2.88;;;1.45;;
40588;SDS011;26297;49.450;6.640;2023-04-25T13:36:19;5.75;;;1.80;;
40588;SDS011;26297;49.450;6.640;2023-04-25T13:39:27;1.67;;;1.40;;
40588;SDS011;26297;49.450;6.640;2023-04-25T13:43:11;3.40;;;1.20;;
40588;SDS011;26297;49.450;6.640;2023-04-25T13:46:39;2.40;;;1.27;;
40588;SDS011;26297;49.450;6.640;2023-04-25T13:49:50;1.50;;;1.13;;
40588;SDS011;26297;49.450;6.640;2023-04-25T13:53:12;1.70;;;1.27;;
40588;SDS011;26297;49.450;6.640;2023-04-25T13:57:06;3.53;;;1.17;;
40588;SDS011;26297;49.450;6.640;2023-04-25T14:04:14;2.15;;;1.40;;
40588;SDS011;26297;49.450;6.640;2023-04-25T14:07:38;2.17;;;1.27;;
40588;SDS011;26297;49.450;6.640;2023-04-25T14:15:09;2.05;;;1.30;;
40588;SDS011;26297;49.450;6.640;2023-04-25T14:19:03;1.98;;;1.48;;
40588;SDS011;26297;49.450;6.640;2023-04-25T14:22:26;1.52;;;1.17;;
40588;SDS011;26297;49.450;6.640;2023-04-25T14:26:11;2.85;;;1.25;;
40588;SDS011;26297;49.450;6.640;2023-04-25T14:29:30;4.18;;;1.58;;
40588;SDS011;26297;49.450;6.640;2023-04-25T14:33:18;4.97;;;1.50;;
40588;SDS011;26297;49.450;6.640;2023-04-25T14:36:34;3.17;;;1.60;;
40588;SDS011;26297;49.450;6.640;2023-04-25T14:40:36;2.50;;;1.40;;
40588;SDS011;26297;49.450;6.640;2023-04-25T14:43:54;3.47;;;1.40;;
40588;SDS011;26297;49.450;6.640;2023-04-25T14:47:52;3.13;;;1.40;;
40588;SDS011;26297;49.450;6.640;2023-04-25T14:51:40;4.22;;;1.45;;
40588;SDS011;26297;49.450;6.640;2023-04-25T16:00:43;2.97;;;1.53;;
40588;SDS011;26297;49.450;6.640;2023-04-25T16:04:10;1.85;;;0.98;;
40588;SDS011;26297;49.450;6.640;2023-04-25T16:07:29;2.08;;;1.20;;
40588;SDS011;26297;49.450;6.640;2023-04-25T16:10:59;2.75;;;0.98;;
40588;SDS011;26297;49.450;6.640;2023-04-25T16:14:42;3.95;;;1.15;;
40588;SDS011;26297;49.450;6.640;2023-04-25T16:18:04;3.03;;;1.33;;
40588;SDS011;26297;49.450;6.640;2023-04-25T16:21:22;1.27;;;0.82;;
40588;SDS011;26297;49.450;6.640;2023-04-25T17:48:24;2.43;;;1.10;;
40588;SDS011;26297;49.450;6.640;2023-04-25T18:22:06;2.03;;;1.27;;
40588;SDS011;26297;49.450;6.640;2023-04-25T19:20:57;2.03;;;1.10;;
40588;SDS011;26297;49.450;6.640;2023-04-25T19:24:46;2.67;;;1.27;;
40588;SDS011;26297;49.450;6.640;2023-04-25T19:28:08;2.35;;;1.60;;
40588;SDS011;26297;49.450;6.640;2023-04-25T19:31:54;2.38;;;1.95;;
40588;SDS011;26297;49.450;6.640;2023-04-25T21:26:55;2.88;;;1.33;;
